createdAt,value
2018-11-11T00:00:01.163Z,2.20
2018-11-11T00:02:28.314Z,1.80
2018-11-11T00:04:55.502Z,2.07
2018-11-11T00:07:22.659Z,1.70
2018-11-11T00:09:49.850Z,1.70
2018-11-11T00:12:17.010Z,2.00
2018-11-11T00:14:44.194Z,1.67
2018-11-11T00:17:11.443Z,2.00
2018-11-11T00:19:38.636Z,1.93
2018-11-11T00:22:05.778Z,1.90
2018-11-11T00:24:32.922Z,1.97
2018-11-11T00:27:00.100Z,2.00
2018-11-11T00:29:27.266Z,2.03
2018-11-11T00:31:54.503Z,2.30
2018-11-11T00:34:21.649Z,2.13
2018-11-11T00:36:48.805Z,2.03
2018-11-11T00:39:16.065Z,1.97
2018-11-11T00:41:43.248Z,2.03
2018-11-11T00:44:10.382Z,2.20
2018-11-11T00:46:37.550Z,2.27
2018-11-11T00:49:04.934Z,2.00
2018-11-11T01:10:43.142Z,2.30
2018-11-11T01:13:10.286Z,1.90
2018-11-11T01:15:37.440Z,2.20
2018-11-11T01:18:04.595Z,2.00
2018-11-11T01:20:31.740Z,2.30
2018-11-11T01:22:58.898Z,2.10
2018-11-11T01:25:26.047Z,2.30
2018-11-11T01:27:53.185Z,2.10
2018-11-11T01:30:20.334Z,2.03
2018-11-11T01:32:47.482Z,2.10
2018-11-11T01:35:15.836Z,2.10
2018-11-11T01:37:43.515Z,2.17
2018-11-11T01:40:10.686Z,2.13
2018-11-11T01:42:37.857Z,2.63
2018-11-11T01:45:06.693Z,2.20
2018-11-11T01:47:33.834Z,2.03
2018-11-11T01:50:01.034Z,1.80
2018-11-11T01:52:28.180Z,2.07
2018-11-11T01:54:55.351Z,2.00
2018-11-11T01:57:22.525Z,1.90
2018-11-11T01:59:49.755Z,1.70
2018-11-11T02:02:16.905Z,1.97
2018-11-11T02:04:44.061Z,1.87
2018-11-11T02:07:11.267Z,2.20
2018-11-11T02:09:38.462Z,1.90
2018-11-11T02:12:05.633Z,1.70
2018-11-11T02:14:32.777Z,1.70
2018-11-11T02:16:59.947Z,1.60
2018-11-11T02:19:27.109Z,1.70
2018-11-11T02:21:54.314Z,1.60
2018-11-11T02:24:21.488Z,1.67
2018-11-11T02:26:48.630Z,1.57
2018-11-11T02:29:15.781Z,1.60
2018-11-11T02:31:42.945Z,1.60
2018-11-11T02:34:10.107Z,1.70
2018-11-11T02:36:37.266Z,1.80
2018-11-11T02:39:05.858Z,1.80
2018-11-11T02:41:33.015Z,1.40
2018-11-11T02:44:00.179Z,1.50
2018-11-11T02:46:27.329Z,1.50
2018-11-11T02:48:54.479Z,1.30
2018-11-11T02:51:21.646Z,1.40
2018-11-11T02:53:48.791Z,1.63
2018-11-11T02:56:15.955Z,1.40
2018-11-11T02:58:43.094Z,1.20
2018-11-11T03:01:10.271Z,1.33
2018-11-11T03:03:37.434Z,1.60
2018-11-11T03:06:04.597Z,1.50
2018-11-11T03:08:31.753Z,1.40
2018-11-11T03:10:58.909Z,1.40
2018-11-11T03:13:26.125Z,2.30
2018-11-11T03:15:53.298Z,1.43
2018-11-11T03:18:20.451Z,1.53
2018-11-11T03:20:47.618Z,1.40
2018-11-11T03:23:14.782Z,1.30
2018-11-11T03:25:41.930Z,1.37
2018-11-11T03:28:09.094Z,1.10
2018-11-11T03:30:36.262Z,1.40
2018-11-11T03:33:03.427Z,1.27
2018-11-11T03:35:30.595Z,1.13
2018-11-11T03:37:57.768Z,2.20
2018-11-11T03:40:24.930Z,1.30
2018-11-11T03:42:52.105Z,1.10
2018-11-11T03:45:20.079Z,1.00
2018-11-11T03:47:48.182Z,1.03
2018-11-11T03:50:15.378Z,1.30
2018-11-11T03:52:42.904Z,1.20
2018-11-11T03:55:10.368Z,1.37
2018-11-11T03:57:37.913Z,1.40
2018-11-11T04:00:05.823Z,1.30
2018-11-11T04:02:33.046Z,1.23
2018-11-11T04:05:00.295Z,1.00
2018-11-11T04:07:27.445Z,1.50
2018-11-11T04:09:54.602Z,1.30
2018-11-11T04:12:21.747Z,1.30
2018-11-11T04:14:48.974Z,1.13
2018-11-11T04:17:16.148Z,1.47
2018-11-11T04:19:43.302Z,1.40
2018-11-11T04:22:14.930Z,1.20
2018-11-11T04:24:42.094Z,1.13
2018-11-11T04:27:09.250Z,1.03
2018-11-11T04:29:36.414Z,1.93
2018-11-11T04:32:03.585Z,1.50
2018-11-11T04:34:30.730Z,1.30
2018-11-11T04:36:57.866Z,1.40
2018-11-11T04:39:25.100Z,1.23
2018-11-11T04:41:52.180Z,1.40
2018-11-11T04:44:19.348Z,1.30
2018-11-11T04:46:46.515Z,1.40
2018-11-11T04:49:14.035Z,1.20
2018-11-11T04:51:41.195Z,1.50
2018-11-11T04:54:08.334Z,1.30
2018-11-11T04:56:35.513Z,1.53
2018-11-11T04:59:02.663Z,1.40
2018-11-11T05:01:29.897Z,1.30
2018-11-11T05:03:56.993Z,1.50
2018-11-11T05:06:24.138Z,1.20
2018-11-11T05:08:51.274Z,1.30
2018-11-11T05:11:18.431Z,1.43
2018-11-11T05:13:45.570Z,1.63
2018-11-11T05:16:12.745Z,1.40
2018-11-11T05:18:39.922Z,1.43
2018-11-11T05:21:07.269Z,1.60
2018-11-11T05:23:34.426Z,1.57
2018-11-11T05:26:01.578Z,1.43
2018-11-11T05:28:28.730Z,1.23
2018-11-11T05:30:55.885Z,1.40
2018-11-11T05:33:29.595Z,1.40
2018-11-11T05:35:56.766Z,1.43
2018-11-11T05:38:23.906Z,1.33
2018-11-11T05:40:51.092Z,1.30
2018-11-11T05:43:18.245Z,1.57
2018-11-11T05:45:45.411Z,2.47
2018-11-11T05:48:12.578Z,1.17
2018-11-11T05:50:39.734Z,1.20
2018-11-11T05:53:06.893Z,1.23
2018-11-11T05:55:34.117Z,1.27
2018-11-11T05:58:01.250Z,1.60
2018-11-11T06:00:28.425Z,1.47
2018-11-11T06:02:55.584Z,1.30
2018-11-11T06:05:22.729Z,1.43
2018-11-11T06:07:49.874Z,1.43
2018-11-11T06:10:17.032Z,1.10
2018-11-11T06:12:44.182Z,2.13
2018-11-11T06:15:12.247Z,1.83
2018-11-11T06:17:39.482Z,1.80
2018-11-11T06:20:08.438Z,1.40
2018-11-11T06:22:35.591Z,1.40
2018-11-11T06:25:02.757Z,1.33
2018-11-11T06:27:29.951Z,1.43
2018-11-11T06:29:57.050Z,1.40
2018-11-11T06:32:24.226Z,1.60
2018-11-11T06:34:51.459Z,1.40
2018-11-11T06:37:18.605Z,1.60
2018-11-11T06:39:45.747Z,1.50
2018-11-11T06:42:12.914Z,1.33
2018-11-11T06:44:40.058Z,1.40
2018-11-11T06:47:07.232Z,1.20
2018-11-11T06:49:34.575Z,1.50
2018-11-11T06:52:01.751Z,1.47
2018-11-11T06:54:28.915Z,1.20
2018-11-11T06:56:56.059Z,1.60
2018-11-11T06:59:23.217Z,1.57
2018-11-11T07:01:50.381Z,1.40
2018-11-11T07:04:17.530Z,1.27
2018-11-11T07:06:44.675Z,1.20
2018-11-11T07:09:11.829Z,1.03
2018-11-11T07:11:38.981Z,1.10
2018-11-11T07:14:06.164Z,1.50
2018-11-11T07:16:33.278Z,1.70
2018-11-11T07:19:00.425Z,1.40
2018-11-11T07:21:27.564Z,1.23
2018-11-11T07:23:54.781Z,1.20
2018-11-11T07:26:21.874Z,1.40
2018-11-11T07:28:49.022Z,1.90
2018-11-11T07:31:16.178Z,1.50
2018-11-11T07:33:43.385Z,1.10
2018-11-11T07:36:11.120Z,1.10
2018-11-11T07:38:38.305Z,0.90
2018-11-11T07:41:05.670Z,1.40
2018-11-11T07:43:32.838Z,1.27
2018-11-11T07:46:00.002Z,1.20
2018-11-11T07:48:27.153Z,1.30
2018-11-11T07:50:54.306Z,1.00
2018-11-11T07:53:21.454Z,1.20
2018-11-11T07:55:48.606Z,1.20
2018-11-11T07:58:15.774Z,1.40
2018-11-11T08:00:42.938Z,1.30
2018-11-11T08:03:10.091Z,1.20
2018-11-11T08:05:37.239Z,1.30
2018-11-11T08:08:04.434Z,1.10
2018-11-11T08:10:37.101Z,1.10
2018-11-11T08:13:04.293Z,1.10
2018-11-11T08:15:31.478Z,1.20
2018-11-11T08:17:58.657Z,1.23
2018-11-11T08:20:25.811Z,1.10
2018-11-11T08:22:52.966Z,1.10
2018-11-11T08:25:20.169Z,1.10
2018-11-11T08:27:47.286Z,0.90
2018-11-11T08:30:14.454Z,1.10
2018-11-11T08:32:41.659Z,1.13
2018-11-11T08:35:09.764Z,1.67
2018-11-11T08:37:37.186Z,1.20
2018-11-11T08:40:05.002Z,1.13
2018-11-11T08:42:32.162Z,0.87
2018-11-11T08:44:59.341Z,1.00
2018-11-11T08:47:26.506Z,0.80
2018-11-11T08:49:53.688Z,1.10
2018-11-11T08:52:20.860Z,1.03
2018-11-11T08:54:48.010Z,0.97
2018-11-11T08:57:15.282Z,1.00
2018-11-11T08:59:42.564Z,1.17
2018-11-11T09:02:09.814Z,1.10
2018-11-11T09:04:36.975Z,1.07
2018-11-11T09:07:04.146Z,1.00
2018-11-11T09:09:31.314Z,1.10
2018-11-11T09:11:58.462Z,1.00
2018-11-11T09:14:25.628Z,0.90
2018-11-11T09:16:52.795Z,1.10
2018-11-11T09:19:20.007Z,1.20
2018-11-11T09:21:47.155Z,1.20
2018-11-11T09:24:14.344Z,1.40
2018-11-11T09:26:41.497Z,1.50
2018-11-11T09:29:08.779Z,1.60
2018-11-11T09:31:36.018Z,1.57
2018-11-11T09:34:03.179Z,1.03
2018-11-11T09:36:30.323Z,0.90
2018-11-11T09:38:57.538Z,1.17
2018-11-11T09:41:24.642Z,1.03
2018-11-11T09:43:51.884Z,1.37
2018-11-11T09:46:19.048Z,0.80
2018-11-11T09:48:46.270Z,1.13
2018-11-11T09:51:13.441Z,1.00
2018-11-11T09:53:40.628Z,0.90
2018-11-11T09:56:07.807Z,0.80
2018-11-11T09:58:35.198Z,0.80
2018-11-11T10:01:02.382Z,1.00
2018-11-11T10:03:34.047Z,0.97
2018-11-11T10:06:07.850Z,1.10
2018-11-11T10:08:47.289Z,1.10
2018-11-11T10:11:38.128Z,0.90
2018-11-11T10:14:16.819Z,1.00
2018-11-11T10:18:52.753Z,1.10
2018-11-11T10:22:22.966Z,0.90
2018-11-11T10:25:01.310Z,1.30
2018-11-11T10:27:36.767Z,1.03
2018-11-11T10:30:42.508Z,1.03
2018-11-11T10:33:19.788Z,1.10
2018-11-11T10:35:50.151Z,1.10
2018-11-11T10:38:22.811Z,1.27
2018-11-11T10:40:58.342Z,1.00
2018-11-11T10:44:31.569Z,1.20
2018-11-11T10:47:01.975Z,1.03
2018-11-11T10:49:40.597Z,1.10
2018-11-11T10:52:07.753Z,1.00
2018-11-11T10:54:34.890Z,1.13
2018-11-11T10:57:02.086Z,1.40
2018-11-11T10:59:29.233Z,1.10
2018-11-11T11:02:02.014Z,1.10
2018-11-11T11:04:29.170Z,1.27
2018-11-11T11:07:01.772Z,1.10
2018-11-11T11:09:28.920Z,1.20
2018-11-11T11:11:56.092Z,1.20
2018-11-11T11:14:23.222Z,1.10
2018-11-11T11:16:50.420Z,1.40
2018-11-11T11:19:17.557Z,1.40
2018-11-11T11:21:44.856Z,1.20
2018-11-11T11:24:12.019Z,1.07
2018-11-11T11:26:39.262Z,1.40
2018-11-11T11:29:06.426Z,1.30
2018-11-11T11:31:33.611Z,1.20
2018-11-11T11:34:00.710Z,1.50
2018-11-11T11:36:27.879Z,1.30
2018-11-11T11:41:51.051Z,1.30
2018-11-11T11:44:20.447Z,1.23
2018-11-11T11:46:49.235Z,1.80
2018-11-11T11:49:17.812Z,1.40
2018-11-11T11:51:52.193Z,1.47
2018-11-11T11:54:22.067Z,1.30
2018-11-11T11:56:55.441Z,1.23
2018-11-11T11:59:27.873Z,1.77
2018-11-11T12:01:58.968Z,1.20
2018-11-11T12:04:32.532Z,1.30
2018-11-11T12:07:02.033Z,1.50
2018-11-11T12:09:33.047Z,1.40
2018-11-11T12:12:01.415Z,1.30
2018-11-11T12:14:30.252Z,1.30
2018-11-11T12:17:03.681Z,1.37
2018-11-11T12:19:33.030Z,1.13
2018-11-11T12:22:06.663Z,1.57
2018-11-11T12:24:36.395Z,1.30
2018-11-11T12:27:11.560Z,1.40
2018-11-11T12:29:41.144Z,1.50
2018-11-11T12:32:10.035Z,1.73
2018-11-11T12:34:39.761Z,1.20
2018-11-11T12:37:10.848Z,1.27
2018-11-11T12:39:41.306Z,1.20
2018-11-11T12:42:10.425Z,1.80
2018-11-11T12:47:18.240Z,1.30
2018-11-11T12:49:47.684Z,1.60
2018-11-11T12:52:16.173Z,1.43
2018-11-11T12:54:50.763Z,1.60
2018-11-11T12:57:21.376Z,1.50
2018-11-11T12:59:56.454Z,1.90
2018-11-11T13:02:28.702Z,1.80
2018-11-11T13:04:58.237Z,1.60
2018-11-11T13:07:30.161Z,1.77
